createdAt,value
2018-12-03T00:00:24.969Z,99643.66
2018-12-03T00:02:57.808Z,99648.41
2018-12-03T00:05:26.147Z,99647.84
2018-12-03T00:07:54.439Z,99651.83
2018-12-03T00:10:22.675Z,99648.61
2018-12-03T00:12:50.900Z,99642.59
2018-12-03T00:15:19.269Z,99653.13
2018-12-03T00:17:47.595Z,99657.30
2018-12-03T00:20:15.935Z,99652.30
2018-12-03T00:22:44.260Z,99660.80
2018-12-03T00:25:12.549Z,99655.55
2018-12-03T00:27:42.325Z,99666.60
2018-12-03T00:30:10.672Z,99657.91
2018-12-03T00:32:38.948Z,99662.92
2018-12-03T00:35:08.951Z,99652.60
2018-12-03T00:37:37.200Z,99658.43
2018-12-03T00:40:06.788Z,99645.72
2018-12-03T00:42:35.093Z,99648.34
2018-12-03T00:45:03.398Z,99643.55
2018-12-03T00:47:31.681Z,99643.28
2018-12-03T00:49:59.879Z,99647.02
2018-12-03T00:52:28.090Z,99644.18
2018-12-03T00:54:56.394Z,99640.55
2018-12-03T00:57:24.643Z,99640.98
2018-12-03T00:59:52.928Z,99641.59
2018-12-03T01:02:25.044Z,99636.31
2018-12-03T01:04:53.669Z,99633.70
2018-12-03T01:07:22.217Z,99643.93
2018-12-03T01:09:50.517Z,99646.16
2018-12-03T01:12:18.799Z,99644.78
2018-12-03T01:14:47.158Z,99640.59
2018-12-03T01:17:15.464Z,99650.66
2018-12-03T01:19:43.755Z,99650.70
2018-12-03T01:22:12.057Z,99646.45
2018-12-03T01:24:40.632Z,99646.16
2018-12-03T01:27:08.882Z,99644.28
2018-12-03T01:29:37.135Z,99651.41
2018-12-03T01:32:05.433Z,99644.56
2018-12-03T01:34:33.935Z,99640.84
2018-12-03T01:37:02.186Z,99641.17
2018-12-03T01:42:23.147Z,99640.09
2018-12-03T01:44:51.491Z,99633.23
2018-12-03T01:47:19.753Z,99641.19
2018-12-03T01:49:48.103Z,99639.03
2018-12-03T01:52:16.322Z,99640.32
2018-12-03T01:54:44.543Z,99642.73
2018-12-03T01:57:12.853Z,99643.28
2018-12-03T01:59:41.163Z,99644.33
2018-12-03T02:02:09.452Z,99630.65
2018-12-03T02:04:37.660Z,99622.70
2018-12-03T02:07:05.968Z,99625.86
2018-12-03T02:09:34.489Z,99632.22
2018-12-03T02:12:02.690Z,99629.01
2018-12-03T02:14:30.904Z,99630.55
2018-12-03T02:16:59.182Z,99630.55
2018-12-03T02:19:27.413Z,99634.06
2018-12-03T02:21:55.659Z,99628.20
2018-12-03T02:24:23.921Z,99627.44
2018-12-03T02:26:52.229Z,99627.95
2018-12-03T02:29:20.456Z,99628.53
2018-12-03T02:31:48.632Z,99627.70
2018-12-03T02:34:16.944Z,99612.41
2018-12-03T02:36:45.220Z,99619.55
2018-12-03T02:39:13.446Z,99608.28
2018-12-03T02:41:41.673Z,99606.92
2018-12-03T02:44:09.927Z,99606.59
2018-12-03T02:46:38.148Z,99610.81
2018-12-03T02:49:06.590Z,99605.20
2018-12-03T02:51:34.854Z,99607.92
2018-12-03T02:54:03.177Z,99611.61
2018-12-03T02:56:31.403Z,99611.31
2018-12-03T02:58:59.637Z,99614.25
2018-12-03T03:01:27.864Z,99602.96
2018-12-03T03:03:56.129Z,99603.70
2018-12-03T03:06:24.437Z,99605.53
2018-12-03T03:08:52.724Z,99603.45
2018-12-03T03:11:20.969Z,99598.14
2018-12-03T03:13:49.182Z,99601.02
2018-12-03T03:16:17.364Z,99599.42
2018-12-03T03:18:45.615Z,99601.02
2018-12-03T03:21:13.893Z,99601.39
2018-12-03T03:23:42.148Z,99601.81
2018-12-03T03:26:10.388Z,99599.00
2018-12-03T03:28:38.612Z,99603.66
2018-12-03T03:31:06.916Z,99595.19
2018-12-03T03:33:35.199Z,99597.58
2018-12-03T03:36:03.436Z,99599.15
2018-12-03T03:38:31.667Z,99593.05
2018-12-03T03:40:59.879Z,99591.75
2018-12-03T03:43:28.175Z,99592.50
2018-12-03T03:45:56.446Z,99587.20
2018-12-03T03:48:24.851Z,99586.42
2018-12-03T03:50:53.069Z,99585.12
2018-12-03T03:53:21.281Z,99583.55
2018-12-03T03:55:49.681Z,99587.49
2018-12-03T03:58:17.877Z,99583.30
2018-12-03T04:00:46.093Z,99583.05
2018-12-03T04:03:14.417Z,99588.08
2018-12-03T04:05:42.641Z,99590.20
2018-12-03T04:08:10.885Z,99585.71
2018-12-03T04:10:39.092Z,99592.06
2018-12-03T04:13:07.389Z,99592.09
2018-12-03T04:15:35.687Z,99592.86
2018-12-03T04:18:03.902Z,99585.71
2018-12-03T04:20:32.145Z,99586.01
2018-12-03T04:23:00.417Z,99582.64
2018-12-03T04:25:28.683Z,99579.67
2018-12-03T04:27:56.945Z,99583.62
2018-12-03T04:30:25.145Z,99575.16
2018-12-03T04:32:54.063Z,99567.56
2018-12-03T04:35:23.286Z,99557.52
2018-12-03T04:37:51.581Z,99556.73
2018-12-03T04:40:19.881Z,99561.70
2018-12-03T04:42:48.237Z,99555.67
2018-12-03T04:45:17.709Z,99546.43
2018-12-03T04:47:46.936Z,99550.07
2018-12-03T04:50:16.241Z,99558.79
2018-12-03T04:52:44.473Z,99558.52
2018-12-03T04:55:13.477Z,99548.81
2018-12-03T04:57:41.734Z,99553.89
2018-12-03T05:00:15.961Z,99552.53
2018-12-03T05:02:44.923Z,99556.26
2018-12-03T05:05:13.141Z,99543.30
2018-12-03T05:07:41.381Z,99540.17
2018-12-03T05:10:14.258Z,99536.20
2018-12-03T05:12:43.185Z,99535.64
2018-12-03T05:15:12.608Z,99534.36
2018-12-03T05:17:41.191Z,99539.93
2018-12-03T05:20:13.717Z,99533.05
2018-12-03T05:22:41.974Z,99542.91
2018-12-03T05:25:10.794Z,99527.61
2018-12-03T05:27:39.132Z,99515.69
2018-12-03T05:30:11.630Z,99523.61
2018-12-03T05:32:40.293Z,99517.02
2018-12-03T05:35:10.090Z,99520.70
2018-12-03T05:37:38.400Z,99506.96
2018-12-03T05:40:10.874Z,99516.46
2018-12-03T05:42:39.143Z,99515.98
2018-12-03T05:45:08.438Z,99514.14
2018-12-03T05:47:36.727Z,99512.09
2018-12-03T05:50:06.894Z,99512.03
2018-12-03T05:52:35.109Z,99517.58
2018-12-03T05:55:03.420Z,99507.26
2018-12-03T05:57:31.694Z,99513.09
2018-12-03T05:59:59.965Z,99511.00
2018-12-03T06:02:28.239Z,99511.00
2018-12-03T06:04:56.532Z,99512.13
2018-12-03T06:07:24.968Z,99512.95
2018-12-03T06:09:53.202Z,99514.25
2018-12-03T06:12:21.444Z,99501.84
2018-12-03T06:14:49.766Z,99504.20
2018-12-03T06:17:17.998Z,99503.67
2018-12-03T06:22:39.454Z,99501.80
2018-12-03T06:25:12.349Z,99507.12
2018-12-03T06:27:40.573Z,99503.67
2018-12-03T06:30:10.892Z,99506.06
2018-12-03T06:32:39.129Z,99501.57
2018-12-03T06:35:09.074Z,99500.52
2018-12-03T06:37:37.279Z,99501.83
2018-12-03T06:40:13.278Z,99507.66
2018-12-03T06:42:41.519Z,99510.05
2018-12-03T06:45:12.177Z,99502.61
2018-12-03T06:47:42.702Z,99511.58
2018-12-03T06:50:11.305Z,99506.81
2018-12-03T06:52:39.740Z,99516.85
2018-12-03T06:55:09.578Z,99511.80
2018-12-03T06:57:37.904Z,99516.02
2018-12-03T07:00:14.825Z,99519.16
2018-12-03T07:02:43.398Z,99511.52
2018-12-03T07:05:12.067Z,99523.93
2018-12-03T07:07:40.904Z,99520.47
2018-12-03T07:10:19.179Z,99532.64
2018-12-03T07:12:51.972Z,99531.83
2018-12-03T07:15:21.486Z,99524.14
2018-12-03T07:17:51.274Z,99530.49
2018-12-03T07:20:19.488Z,99530.49
2018-12-03T07:22:47.722Z,99533.66
2018-12-03T07:25:15.973Z,99544.48
2018-12-03T07:27:44.222Z,99545.80
2018-12-03T07:30:28.333Z,99551.11
2018-12-03T07:32:56.571Z,99556.14
2018-12-03T07:35:24.828Z,99567.74
2018-12-03T07:37:55.193Z,99566.42
2018-12-03T07:40:23.416Z,99573.28
2018-12-03T07:42:51.658Z,99577.00
2018-12-03T07:45:21.242Z,99571.42
2018-12-03T07:47:49.654Z,99585.43
2018-12-03T07:50:18.946Z,99584.86
2018-12-03T07:52:47.264Z,99585.95
2018-12-03T07:55:16.758Z,99589.87
2018-12-03T07:57:46.654Z,99587.23
2018-12-03T08:00:18.440Z,99586.69
2018-12-03T08:02:46.730Z,99575.88
2018-12-03T08:05:14.995Z,99585.12
2018-12-03T08:07:43.326Z,99583.06
2018-12-03T08:10:13.846Z,99585.23
2018-12-03T08:12:42.172Z,99578.62
2018-12-03T08:15:11.995Z,99591.30
2018-12-03T08:17:40.414Z,99590.75
2018-12-03T08:20:26.859Z,99591.80
2018-12-03T08:22:57.698Z,99599.52
2018-12-03T08:25:25.997Z,99603.47
2018-12-03T08:27:54.252Z,99606.09
2018-12-03T08:30:22.554Z,99605.02
2018-12-03T08:32:50.780Z,99612.98
2018-12-03T08:35:19.214Z,99617.45
2018-12-03T08:37:47.506Z,99620.64
2018-12-03T08:40:17.820Z,99620.64
2018-12-03T08:42:48.407Z,99614.30
2018-12-03T08:45:16.672Z,99609.30
2018-12-03T08:47:45.432Z,99619.07
2018-12-03T08:50:16.100Z,99616.91
2018-12-03T08:52:44.367Z,99619.28
2018-12-03T08:55:12.915Z,99622.20
2018-12-03T08:57:41.145Z,99623.79
2018-12-03T09:00:13.928Z,99619.34
2018-12-03T09:03:02.459Z,99618.55
2018-12-03T09:05:36.751Z,99622.78
2018-12-03T09:08:06.029Z,99624.92
2018-12-03T09:10:34.306Z,99626.22
2018-12-03T09:13:23.418Z,99634.15
2018-12-03T09:15:55.832Z,99637.83
2018-12-03T09:18:24.274Z,99633.61
2018-12-03T09:20:52.588Z,99628.06
2018-12-03T09:23:20.866Z,99629.64
2018-12-03T09:25:49.069Z,99630.98
2018-12-03T09:28:17.361Z,99621.73
2018-12-03T09:30:45.686Z,99623.05
2018-12-03T09:33:13.915Z,99627.30
2018-12-03T09:35:42.209Z,99620.24
2018-12-03T09:38:10.474Z,99629.20
2018-12-03T09:40:38.862Z,99635.29
2018-12-03T09:43:07.094Z,99623.97
2018-12-03T09:45:35.373Z,99627.43
2018-12-03T09:48:03.654Z,99636.69
2018-12-03T09:50:31.884Z,99627.17
2018-12-03T09:53:07.120Z,99630.62
2018-12-03T09:55:35.435Z,99623.77
2018-12-03T09:58:07.457Z,99637.05
2018-12-03T10:00:35.827Z,99635.26
2018-12-03T10:03:12.812Z,99636.04
2018-12-03T10:05:48.730Z,99627.05
2018-12-03T10:08:17.022Z,99635.22
2018-12-03T10:10:49.722Z,99629.11
2018-12-03T10:13:17.961Z,99633.02
2018-12-03T10:15:46.221Z,99632.81
2018-12-03T10:18:14.724Z,99627.98
2018-12-03T10:20:47.762Z,99633.80
2018-12-03T10:23:16.099Z,99631.14
2018-12-03T10:25:44.456Z,99626.41
2018-12-03T10:28:12.732Z,99632.81
2018-12-03T10:30:40.996Z,99626.23
2018-12-03T10:33:09.271Z,99624.56
2018-12-03T10:35:38.790Z,99635.40
2018-12-03T10:38:15.729Z,99631.41
2018-12-03T10:40:47.795Z,99633.82
2018-12-03T10:43:16.059Z,99633.07
2018-12-03T10:45:44.390Z,99628.53
2018-12-03T10:48:12.689Z,99632.00
2018-12-03T10:50:40.950Z,99625.60
2018-12-03T10:53:09.256Z,99628.50
2018-12-03T10:55:41.617Z,99630.34
2018-12-03T10:58:11.299Z,99631.38
2018-12-03T11:00:44.885Z,99628.19
2018-12-03T11:03:13.761Z,99645.64
2018-12-03T11:05:47.917Z,99636.81
2018-12-03T11:08:22.413Z,99642.56
2018-12-03T11:10:51.627Z,99648.63
2018-12-03T11:13:20.053Z,99632.70
2018-12-03T11:15:48.300Z,99633.20
2018-12-03T11:18:16.550Z,99628.19
2018-12-03T11:20:44.819Z,99631.95
2018-12-03T11:23:19.384Z,99630.91
2018-12-03T11:25:47.643Z,99635.69
2018-12-03T11:28:16.900Z,99637.61
2018-12-03T11:30:49.825Z,99642.09
2018-12-03T11:33:23.427Z,99631.05
2018-12-03T11:35:52.785Z,99644.27
2018-12-03T11:38:57.091Z,99646.61
2018-12-03T11:41:25.393Z,99633.44
2018-12-03T11:43:53.709Z,99637.68
2018-12-03T11:46:22.026Z,99642.97
2018-12-03T11:48:50.314Z,99638.73
2018-12-03T11:51:18.680Z,99646.91
2018-12-03T11:53:47.002Z,99643.02
2018-12-03T11:56:15.317Z,99642.46
2018-12-03T11:58:43.618Z,99646.95
2018-12-03T12:01:11.917Z,99637.95
2018-12-03T12:03:42.996Z,99642.17
2018-12-03T12:06:11.188Z,99622.07
2018-12-03T12:08:39.459Z,99631.09
2018-12-03T12:11:07.771Z,99623.42
2018-12-03T12:13:36.115Z,99635.83
2018-12-03T12:16:04.527Z,99638.47
2018-12-03T12:18:32.774Z,99627.39
2018-12-03T12:21:01.051Z,99636.63
2018-12-03T12:23:29.326Z,99638.22
2018-12-03T12:25:57.606Z,99626.62
2018-12-03T12:28:25.963Z,99631.36
2018-12-03T12:30:54.267Z,99630.83
2018-12-03T12:33:22.592Z,99628.42
2018-12-03T12:35:50.845Z,99628.75
2018-12-03T12:38:19.172Z,99632.45
2018-12-03T12:40:47.414Z,99626.89
2018-12-03T12:43:15.780Z,99635.05
2018-12-03T12:45:56.267Z,99627.63
2018-12-03T12:48:24.528Z,99632.72
2018-12-03T12:50:52.767Z,99632.72
2018-12-03T12:53:21.004Z,99630.58
2018-12-03T12:55:49.264Z,99631.67
2018-12-03T12:58:17.595Z,99621.63
2018-12-03T13:00:45.823Z,99627.43
2018-12-03T13:03:14.125Z,99628.48
2018-12-03T13:05:42.409Z,99626.14
2018-12-03T13:08:10.663Z,99629.56
2018-12-03T13:10:38.939Z,99627.17
2018-12-03T13:13:07.237Z,99641.98
2018-12-03T13:15:35.515Z,99637.20
2018-12-03T13:18:03.890Z,99638.53
2018-12-03T13:20:32.113Z,99644.89
2018-12-03T13:23:06.956Z,99635.13
2018-12-03T13:25:35.254Z,99634.95
2018-12-03T13:28:03.644Z,99635.40
2018-12-03T13:30:31.970Z,99638.30
2018-12-03T13:33:00.266Z,99631.94
2018-12-03T13:35:29.252Z,99629.30
2018-12-03T13:37:57.110Z,99632.73
2018-12-03T13:40:25.436Z,99641.97
2018-12-03T13:42:53.760Z,99627.47
2018-12-03T13:45:23.988Z,99627.72
2018-12-03T13:47:53.199Z,99626.39
2018-12-03T13:50:21.431Z,99633.80
2018-12-03T13:52:49.707Z,99622.17
2018-12-03T13:55:19.116Z,99632.72
2018-12-03T13:57:47.358Z,99623.50
2018-12-03T14:00:21.036Z,99630.08
2018-12-03T14:03:00.339Z,99623.23
2018-12-03T14:05:30.396Z,99621.33
2018-12-03T14:08:09.593Z,99615.78
2018-12-03T14:11:54.147Z,99625.55
2018-12-03T14:16:36.288Z,99639.84
2018-12-03T14:19:09.661Z,99645.06
2018-12-03T14:21:41.862Z,99645.02
2018-12-03T14:24:19.767Z,99641.84
2018-12-03T14:26:48.037Z,99642.87
2018-12-03T14:29:16.294Z,99642.61
2018-12-03T14:31:44.606Z,99639.45
2018-12-03T14:34:19.914Z,99644.20
2018-12-03T14:36:48.161Z,99638.37
2018-12-03T14:39:16.419Z,99637.57
2018-12-03T14:41:44.735Z,99639.14
2018-12-03T14:44:13.051Z,99643.07
2018-12-03T14:46:41.353Z,99643.57
2018-12-03T14:49:09.701Z,99639.30
2018-12-03T14:51:38.069Z,99644.05
2018-12-03T14:54:06.459Z,99646.14
2018-12-03T14:56:34.744Z,99645.05
2018-12-03T14:59:03.066Z,99648.19
2018-12-03T15:01:32.220Z,99650.54
2018-12-03T15:04:05.092Z,99648.67
2018-12-03T15:06:33.357Z,99642.52
2018-12-03T15:09:01.701Z,99646.75
2018-12-03T15:11:29.985Z,99650.19
2018-12-03T15:13:58.298Z,99649.41
2018-12-03T15:16:26.607Z,99645.70
2018-12-03T15:18:54.849Z,99649.94
2018-12-03T15:21:23.083Z,99640.94
2018-12-03T15:23:51.446Z,99646.75
2018-12-03T15:26:19.782Z,99642.81
2018-12-03T15:28:48.099Z,99645.78
2018-12-03T15:31:16.356Z,99640.49
2018-12-03T15:33:44.642Z,99644.20
2018-12-03T15:36:12.885Z,99638.95
2018-12-03T15:38:41.091Z,99640.56
2018-12-03T15:41:09.333Z,99639.73
2018-12-03T15:43:38.829Z,99646.84
2018-12-03T15:46:07.208Z,99642.91
2018-12-03T15:48:35.520Z,99645.55
2018-12-03T15:51:03.793Z,99645.28
2018-12-03T15:53:32.063Z,99651.33
2018-12-03T15:56:00.462Z,99650.28
2018-12-03T15:58:28.869Z,99652.05
2018-12-03T16:00:57.197Z,99652.86
2018-12-03T16:03:25.618Z,99655.55
2018-12-03T16:05:54.548Z,99648.14
2018-12-03T16:08:22.994Z,99654.17
2018-12-03T16:10:51.298Z,99652.41
2018-12-03T16:13:19.688Z,99654.75
2018-12-03T16:15:48.163Z,99649.94
2018-12-03T16:18:16.752Z,99652.86
2018-12-03T16:20:45.161Z,99654.97
2018-12-03T16:23:13.430Z,99658.44
2018-12-03T16:25:41.744Z,99654.52
2018-12-03T16:28:10.176Z,99661.58
2018-12-03T16:30:38.455Z,99661.83
2018-12-03T16:33:06.764Z,99667.71
2018-12-03T16:35:36.685Z,99663.75
2018-12-03T16:38:04.940Z,99671.84
2018-12-03T16:40:33.243Z,99669.95
2018-12-03T16:43:01.527Z,99677.11
2018-12-03T16:45:29.897Z,99678.38
2018-12-03T16:47:58.183Z,99679.70
2018-12-03T16:50:26.539Z,99679.17
2018-12-03T16:52:54.872Z,99681.52
2018-12-03T16:55:23.220Z,99680.27
2018-12-03T16:57:51.810Z,99681.91
2018-12-03T17:00:20.142Z,99686.10
2018-12-03T17:02:48.393Z,99694.83
2018-12-03T17:05:16.653Z,99692.12
2018-12-03T17:07:44.981Z,99694.50
2018-12-03T17:10:17.761Z,99698.46
2018-12-03T17:12:46.465Z,99697.09
2018-12-03T17:15:14.736Z,99701.33
2018-12-03T17:17:43.020Z,99697.00
2018-12-03T17:23:50.702Z,99690.27
2018-12-03T17:26:18.977Z,99688.03
2018-12-03T17:28:47.190Z,99686.96
2018-12-03T17:34:08.790Z,99687.18
2018-12-03T17:36:43.234Z,99690.56
2018-12-03T17:39:11.509Z,99682.42
2018-12-03T17:41:39.764Z,99679.53
2018-12-03T17:44:08.382Z,99684.81
2018-12-03T17:46:36.685Z,99677.39
2018-12-03T17:49:04.951Z,99676.87
2018-12-03T17:51:33.149Z,99668.91
2018-12-03T17:54:01.500Z,99662.59
2018-12-03T17:56:29.757Z,99664.66
2018-12-03T17:58:57.990Z,99655.71
2018-12-03T18:01:26.265Z,99657.01
2018-12-03T18:06:47.327Z,99668.28
2018-12-03T18:09:15.726Z,99665.34
2018-12-03T18:11:44.043Z,99670.59
2018-12-03T18:14:43.325Z,99674.24
2018-12-03T18:17:11.978Z,99677.46
2018-12-03T18:19:40.256Z,99670.38
2018-12-03T18:22:08.739Z,99666.11
2018-12-03T18:24:37.058Z,99672.77
2018-12-03T18:27:05.413Z,99674.24
2018-12-03T18:29:33.718Z,99677.19
2018-12-03T18:32:02.055Z,99682.74
2018-12-03T18:34:30.363Z,99685.69
2018-12-03T18:36:58.627Z,99682.06
2018-12-03T18:39:26.888Z,99676.94
2018-12-03T18:41:55.160Z,99674.58
2018-12-03T18:44:23.431Z,99673.17
2018-12-03T18:46:51.732Z,99672.34
2018-12-03T18:49:27.637Z,99669.21
2018-12-03T18:51:55.976Z,99667.59
2018-12-03T18:54:24.333Z,99669.92
2018-12-03T18:56:52.592Z,99671.79
2018-12-03T18:59:20.888Z,99671.81
2018-12-03T19:01:49.103Z,99667.18
2018-12-03T19:04:17.382Z,99664.45
2018-12-03T19:06:45.644Z,99670.59
2018-12-03T19:09:13.996Z,99665.22
2018-12-03T19:11:42.294Z,99669.12
2018-12-03T19:14:10.653Z,99661.20
2018-12-03T19:16:38.981Z,99665.52
2018-12-03T19:19:07.230Z,99654.11
2018-12-03T19:21:35.510Z,99655.92
2018-12-03T19:24:04.060Z,99653.62
2018-12-03T19:26:32.461Z,99653.28
2018-12-03T19:29:00.852Z,99650.37
2018-12-03T19:31:48.423Z,99643.77
2018-12-03T19:34:16.758Z,99645.67
2018-12-03T19:37:07.747Z,99648.06
2018-12-03T19:39:36.125Z,99653.86
2018-12-03T19:42:04.484Z,99659.91
2018-12-03T19:44:33.878Z,99663.59
2018-12-03T19:47:02.136Z,99664.36
2018-12-03T19:49:30.519Z,99668.78
2018-12-03T19:51:59.783Z,99657.64
2018-12-03T19:54:28.099Z,99658.38
2018-12-03T19:56:57.830Z,99659.42
2018-12-03T19:59:28.753Z,99656.57
2018-12-03T20:01:57.106Z,99658.97
2018-12-03T20:04:30.737Z,99656.52
2018-12-03T20:06:59.221Z,99654.42
2018-12-03T20:09:27.638Z,99652.37
2018-12-03T20:11:56.067Z,99652.83
2018-12-03T20:14:24.393Z,99651.48
2018-12-03T20:16:52.908Z,99647.30
2018-12-03T20:19:21.223Z,99646.27
2018-12-03T20:21:51.217Z,99639.27
2018-12-03T20:24:22.259Z,99645.43
2018-12-03T20:27:04.514Z,99646.93
2018-12-03T20:29:39.236Z,99646.47
2018-12-03T20:32:17.909Z,99646.03
2018-12-03T20:34:54.396Z,99637.30
2018-12-03T20:37:48.069Z,99638.41
2018-12-03T20:40:45.149Z,99637.33
2018-12-03T20:43:17.948Z,99637.33
2018-12-03T20:45:57.914Z,99638.67
2018-12-03T20:48:34.510Z,99638.19
2018-12-03T20:51:10.378Z,99639.60
2018-12-03T20:53:45.070Z,99643.63
2018-12-03T20:56:13.968Z,99648.38
2018-12-03T20:58:42.225Z,99651.63
2018-12-03T21:01:10.647Z,99655.63
2018-12-03T21:03:39.096Z,99676.03
2018-12-03T21:06:07.410Z,99673.97
2018-12-03T21:08:35.754Z,99678.15
2018-12-03T21:11:04.187Z,99684.62
2018-12-03T21:16:26.081Z,99677.59
2018-12-03T21:18:54.577Z,99686.39
2018-12-03T21:21:22.977Z,99682.92
2018-12-03T21:23:51.264Z,99679.35
2018-12-03T21:26:19.679Z,99683.59
2018-12-03T21:28:47.931Z,99692.55
2018-12-03T21:31:16.349Z,99700.15
2018-12-03T21:33:44.591Z,99692.96
2018-12-03T21:39:07.724Z,99710.11
2018-12-03T21:41:36.090Z,99728.02
2018-12-03T21:44:04.603Z,99730.38
2018-12-03T21:46:32.877Z,99736.45
2018-12-03T21:49:01.175Z,99752.75
2018-12-03T21:51:29.550Z,99761.04
2018-12-03T21:53:58.043Z,99765.16
2018-12-03T21:56:26.458Z,99770.52
2018-12-03T21:58:54.776Z,99774.66
2018-12-03T22:01:23.183Z,99784.61
2018-12-03T22:03:51.504Z,99800.26
2018-12-03T22:06:19.794Z,99810.72
2018-12-03T22:08:48.205Z,99815.09
2018-12-03T22:11:16.513Z,99827.98
2018-12-03T22:13:44.791Z,99841.27
2018-12-03T22:16:13.169Z,99843.53
2018-12-03T22:18:41.383Z,99849.22
2018-12-03T22:21:09.757Z,99863.14
2018-12-03T22:23:37.988Z,99864.50
2018-12-03T22:26:06.362Z,99863.63
2018-12-03T22:28:34.693Z,99874.84
2018-12-03T22:31:03.078Z,99878.63
2018-12-03T22:33:31.299Z,99885.77
2018-12-03T22:35:59.550Z,99885.25
2018-12-03T22:38:27.823Z,99903.28
2018-12-03T22:40:56.082Z,99904.37
2018-12-03T22:43:24.310Z,99918.33
2018-12-03T22:45:52.598Z,99924.11
2018-12-03T22:48:20.867Z,99927.09
2018-12-03T22:50:49.209Z,99932.35
2018-12-03T22:53:17.668Z,99941.85
2018-12-03T22:55:45.994Z,99948.55
2018-12-03T22:58:14.291Z,99952.67
2018-12-03T23:00:44.714Z,99954.56
2018-12-03T23:03:13.174Z,99956.45
2018-12-03T23:05:41.487Z,99951.06
2018-12-03T23:08:09.768Z,99954.84
2018-12-03T23:10:38.025Z,99958.56
2018-12-03T23:13:06.378Z,99966.17
2018-12-03T23:15:34.720Z,99979.98
2018-12-03T23:18:03.000Z,99976.47
2018-12-03T23:20:31.470Z,99984.38
2018-12-03T23:22:59.707Z,99985.86
2018-12-03T23:25:27.999Z,99992.22
2018-12-03T23:27:56.275Z,99993.31
2018-12-03T23:30:24.732Z,99999.53
2018-12-03T23:32:52.942Z,99999.98
2018-12-03T23:35:21.235Z,100002.97
2018-12-03T23:37:49.481Z,100010.39
2018-12-03T23:40:17.728Z,100015.20
2018-12-03T23:42:46.092Z,100022.06
2018-12-03T23:45:14.432Z,100028.07
2018-12-03T23:47:42.730Z,100040.62
2018-12-03T23:50:11.056Z,100035.90
2018-12-03T23:52:39.335Z,100038.33
2018-12-03T23:55:07.646Z,100046.52
2018-12-03T23:57:35.923Z,100050.07
